Archimede — IXZR — position and weather

sailwx.info

Track history (hours):
 
Tides and Currents Weather Stations Pressure Air Temp Water Temp Dewpoint Dewpoint Depression Visibility Wind Speed Wind Dir Waves Ship Positions

Archimede

Last reported at 2016-Apr-28 23:33 UTC. Time now 2016-Apr-28 23:56 UTC.
Position N 38°13' E 015°37'.

; draft 3.1 m.

Type: Passenger vessel. MMSI: 247054700.

Date/timePositionNaut miles runAvg speedWind from/ knotsBaromVisibWave heightAir tempDewpointWater temp
2016-Apr-28 23:33N 38°13' E 015°37'6 6.2
2016-Apr-28 22:33N 38°08' E 015°32'6 6.0
2016-Apr-28 21:33N 38°13' E 015°37'7 6.5
2016-Apr-28 20:33N 38°08' E 015°31'7 7.2
2016-Apr-28 19:33N 38°13' E 015°38'6 5.6
2016-Apr-28 18:33N 38°09' E 015°33'4 3.6
2016-Apr-28 17:33N 38°12' E 015°36'2 2.0
2016-Apr-28 16:33N 38°10' E 015°34'1 0.6
2016-Apr-28 15:33N 38°11' E 015°35'3 3.0
2016-Apr-28 14:33N 38°13' E 015°37'7 6.8
2016-Apr-28 13:33N 38°08' E 015°31'7 7.4
2016-Apr-28 12:33N 38°13' E 015°38'6 5.6
2016-Apr-28 11:33N 38°09' E 015°33'4 4.3
2016-Apr-28 10:33N 38°13' E 015°36'4 3.7
2016-Apr-28 09:33N 38°10' E 015°34'3 2.7
2016-Apr-28 08:33N 38°12' E 015°36'2 2.2
2016-Apr-28 07:34N 38°10' E 015°34'1 0.6
2016-Apr-28 06:33N 38°10' E 015°35'4 0.8
2016-Apr-28 01:27N 38°13' E 015°38'7 8.3
2016-Apr-28 00:34N 38°08' E 015°31'7 7.4
2016-Apr-27 23:34N 38°13' E 015°38'7 7.4
2016-Apr-27 22:34N 38°08' E 015°31'7 7.4
2016-Apr-27 21:34N 38°13' E 015°38'7 7.3
2016-Apr-27 20:33N 38°08' E 015°31'7 7.3
2016-Apr-27 19:33N 38°13' E 015°37'5 4.9
2016-Apr-27 18:33N 38°09' E 015°35'2 2.0
2016-Apr-27 17:34N 38°11' E 015°35'2 1.7
2016-Apr-27 16:34N 38°10' E 015°37'3 2.9
2016-Apr-27 15:34N 38°09' E 015°34'6 5.5
2016-Apr-27 14:33N 38°13' E 015°38'7 7.4
2016-Apr-27 13:33N 38°08' E 015°31'7 7.4
2016-Apr-27 12:34N 38°13' E 015°38'6 6.3
2016-Apr-27 11:33N 38°08' E 015°33'5 5.1
2016-Apr-27 10:33N 38°13' E 015°36'4 4.0
2016-Apr-27 09:33N 38°09' E 015°35'3 2.8
2016-Apr-27 08:34N 38°12' E 015°35'3 2.7
2016-Apr-27 07:33N 38°09' E 015°36'3 2.6
2016-Apr-27 06:34N 38°11' E 015°35'1 0.2
2016-Apr-27 01:33N 38°11' E 015°36'2 2.1
2016-Apr-27 00:33N 38°10' E 015°34'3 2.9
2016-Apr-26 23:33N 38°12' E 015°37'5 5.0
2016-Apr-26 22:33N 38°08' E 015°32'7 6.9
2016-Apr-26 21:33N 38°13' E 015°38'7 7.5
2016-Apr-26 20:33N 38°08' E 015°31'7 7.4
2016-Apr-26 19:33N 38°13' E 015°38'5 4.6
2016-Apr-26 18:33N 38°09' E 015°36'2 2.2
2016-Apr-26 17:33N 38°10' E 015°35'2 2.2
2016-Apr-26 16:33N 38°10' E 015°37'3 2.9
2016-Apr-26 15:33N 38°09' E 015°34'5 4.9
2016-Apr-26 14:33N 38°13' E 015°38'7 7.1
2016-Apr-26 13:32N 38°08' E 015°31'7 7.5
2016-Apr-26 12:33N 38°13' E 015°38'5 5.5
2016-Apr-26 11:33N 38°09' E 015°34'4 4.0
2016-Apr-26 10:34N 38°12' E 015°35'2 2.1
2016-Apr-26 09:34N 38°13' E 015°38'3 3.3
2016-Apr-26 08:32N 38°13' E 015°34'0 0.0
2016-Apr-26 07:29N 38°13' E 015°34'0 0.0
2016-Apr-26 06:32N 38°13' E 015°34'  
2016-Apr-24 01:33N 38°14' E 015°37'6 6.2
2016-Apr-24 00:33N 38°08' E 015°33'6 6.3
2016-Apr-23 23:34N 38°13' E 015°38'7 7.3
2016-Apr-23 22:33N 38°08' E 015°31'7 7.5
2016-Apr-23 21:34N 38°13' E 015°38'7 7.3
2016-Apr-23 20:33N 38°08' E 015°32'7 7.2
2016-Apr-23 19:34N 38°13' E 015°38'7 7.0
2016-Apr-23 18:34N 38°08' E 015°32'7 6.8
2016-Apr-23 17:33N 38°13' E 015°37'4 3.9
2016-Apr-23 16:34N 38°09' E 015°37'3 3.1
2016-Apr-23 15:34N 38°09' E 015°33'6 5.8
2016-Apr-23 14:33N 38°13' E 015°38'7 7.3
2016-Apr-23 13:33N 38°08' E 015°31'7 7.4
2016-Apr-23 12:33N 38°13' E 015°38'7 7.2
2016-Apr-23 11:33N 38°08' E 015°32'6 5.8
2016-Apr-23 10:33N 38°13' E 015°36'5 4.6
2016-Apr-23 09:33N 38°08' E 015°34'4 3.6
2016-Apr-23 08:33N 38°12' E 015°35'3 3.0
2016-Apr-23 07:33N 38°09' E 015°35'3 3.1
2016-Apr-23 06:33N 38°12' E 015°35'3 0.5
2016-Apr-23 01:22N 38°13' E 015°38'7 8.2
2016-Apr-23 00:34N 38°08' E 015°32'7 6.7
2016-Apr-22 23:33N 38°13' E 015°38'7 7.4
2016-Apr-22 22:33N 38°08' E 015°31'7 7.5
2016-Apr-22 21:34N 38°13' E 015°38'7 7.4
2016-Apr-22 20:33N 38°08' E 015°31'7 7.5
2016-Apr-22 19:33N 38°13' E 015°38'7 6.6
2016-Apr-22 18:33N 38°08' E 015°33'4 4.2
2016-Apr-22 17:33N 38°12' E 015°35'3 3.0
2016-Apr-22 16:33N 38°09' E 015°36'2 2.0
2016-Apr-22 15:34N 38°11' E 015°35'2 1.7
2016-Apr-22 14:34N 38°11' E 015°37'3 3.4
2016-Apr-22 13:34N 38°09' E 015°33'6 5.7
2016-Apr-22 12:34N 38°13' E 015°38'6 6.4
2016-Apr-22 11:33N 38°08' E 015°33'6 6.2
2016-Apr-22 10:33N 38°13' E 015°37'6 5.8
2016-Apr-22 09:33N 38°08' E 015°33'5 4.9
2016-Apr-22 08:33N 38°13' E 015°36'2 1.6
2016-Apr-22 07:31N 38°13' E 015°38'0 0.0
2016-Apr-22 06:31N 38°13' E 015°38'0 0.0
2016-Apr-22 01:32N 38°13' E 015°38'7 7.6
2016-Apr-22 00:33N 38°08' E 015°31'7 7.4
2016-Apr-21 23:33N 38°13' E 015°38'7 7.4
2016-Apr-21 22:33N 38°08' E 015°31'7 7.4
2016-Apr-21 21:33N 38°13' E 015°38'7 7.4
2016-Apr-21 20:33N 38°08' E 015°31'7 7.4
2016-Apr-21 19:33N 38°13' E 015°38'5 5.5
2016-Apr-21 18:33N 38°09' E 015°34'5 4.5
2016-Apr-21 17:33N 38°13' E 015°36'4 4.3
2016-Apr-21 16:33N 38°09' E 015°35'1 1.2
2016-Apr-21 15:33N 38°10' E 015°34'5 4.7
2016-Apr-21 14:33N 38°13' E 015°38'7 7.5
2016-Apr-21 13:33N 38°08' E 015°31'7 7.4
2016-Apr-21 12:33N 38°13' E 015°38'6 5.6
2016-Apr-21 11:33N 38°09' E 015°34'3 3.2
2016-Apr-21 10:33N 38°12' E 015°36'2 2.3
2016-Apr-21 09:33N 38°09' E 015°36'2 1.7
2016-Apr-21 08:33N 38°11' E 015°35'2 1.8
2016-Apr-21 07:33N 38°09' E 015°36'2 1.7
2016-Apr-21 06:33N 38°10' E 015°34'4 4.2
2016-Apr-21 05:33N 38°13' E 015°38'0 0.0
2016-Apr-21 01:33N 38°13' E 015°38'7 7.4
2016-Apr-21 00:33N 38°08' E 015°31'7 7.1
2016-Apr-20 23:33N 38°13' E 015°38'7 6.7
2016-Apr-20 22:33N 38°08' E 015°32'6 6.3
2016-Apr-20 21:33N 38°13' E 015°37'7 6.7
2016-Apr-20 20:33N 38°08' E 015°31'7 7.4
2016-Apr-20 19:33N 38°13' E 015°38'5 5.2
2016-Apr-20 18:33N 38°09' E 015°35'2 2.4
2016-Apr-20 17:33N 38°11' E 015°35'2 1.7
2016-Apr-20 16:33N 38°10' E 015°37'2 2.0
2016-Apr-20 15:33N 38°10' E 015°34'4 3.8
2016-Apr-20 14:33N 38°13' E 015°37'6 6.2
2016-Apr-20 13:33N 38°08' E 015°32'7 7.1
2016-Apr-20 12:33N 38°13' E 015°38'4 4.4
2016-Apr-20 11:33N 38°09' E 015°36'2 1.5
2016-Apr-20 10:33N 38°10' E 015°35'2 2.0
2016-Apr-20 09:34N 38°11' E 015°37'4 3.6
2016-Apr-20 08:33N 38°09' E 015°33'4 4.0
2016-Apr-20 07:33N 38°12' E 015°36'2 2.0
2016-Apr-20 06:33N 38°13' E 015°34'0 0.0
2016-Apr-20 02:28N 38°13' E 015°34'3 3.7
2016-Apr-20 01:34N 38°10' E 015°37'3 3.2
2016-Apr-20 00:34N 38°09' E 015°33'4 4.3
2016-Apr-19 23:33N 38°12' E 015°37'6 5.9
2016-Apr-19 22:33N 38°08' E 015°31'7 6.9
2016-Apr-19 21:33N 38°13' E 015°38'7 6.9
2016-Apr-19 20:33N 38°08' E 015°31'7 7.3
2016-Apr-19 19:33N 38°13' E 015°38'5 5.3
2016-Apr-19 18:33N 38°09' E 015°35'3 2.7
2016-Apr-19 17:33N 38°11' E 015°35'2 1.6
2016-Apr-19 16:33N 38°13' E 015°34'0 0.2
2016-Apr-19 15:33N 38°13' E 015°34'0 0.0
2016-Apr-19 14:33N 38°13' E 015°34'0 0.0
2016-Apr-19 13:33N 38°13' E 015°34'0 0.0
2016-Apr-19 12:33N 38°13' E 015°34'0 0.0
2016-Apr-19 11:33N 38°13' E 015°34'0 0.0
2016-Apr-19 10:33N 38°13' E 015°34'0 0.0
2016-Apr-19 09:33N 38°13' E 015°34'0 0.0
2016-Apr-19 08:33N 38°13' E 015°34'0 0.0
2016-Apr-19 07:34N 38°13' E 015°34'0 0.0
2016-Apr-19 06:33N 38°13' E 015°34'0 0.0
2016-Apr-19 02:08N 38°13' E 015°34'3 5.8
2016-Apr-19 01:34N 38°13' E 015°38'7 7.4
2016-Apr-19 00:33N 38°08' E 015°31'7 7.4
2016-Apr-18 23:34N 38°13' E 015°38'  
Track history (hours):
 
Tides and Currents Weather Stations Pressure Air Temp Water Temp Dewpoint Dewpoint Depression Visibility Wind Speed Wind Dir Waves Ship Positions

Archimede

Last reported at 2016-Apr-28 23:33 UTC. Time now 2016-Apr-28 23:56 UTC.
Position N 38°13' E 015°37'.

; draft 3.1 m.

Type: Passenger vessel. MMSI: 247054700.

Date/timePositionNaut miles runAvg speedWind from/ knotsBaromVisibWave heightAir tempDewpointWater temp
2016-Apr-28 23:33N 38°13' E 015°37'6 6.2
2016-Apr-28 22:33N 38°08' E 015°32'6 6.0
2016-Apr-28 21:33N 38°13' E 015°37'7 6.5
2016-Apr-28 20:33N 38°08' E 015°31'7 7.2
2016-Apr-28 19:33N 38°13' E 015°38'6 5.6
2016-Apr-28 18:33N 38°09' E 015°33'4 3.6
2016-Apr-28 17:33N 38°12' E 015°36'2 2.0
2016-Apr-28 16:33N 38°10' E 015°34'1 0.6
2016-Apr-28 15:33N 38°11' E 015°35'3 3.0
2016-Apr-28 14:33N 38°13' E 015°37'7 6.8
2016-Apr-28 13:33N 38°08' E 015°31'7 7.4
2016-Apr-28 12:33N 38°13' E 015°38'6 5.6
2016-Apr-28 11:33N 38°09' E 015°33'4 4.3
2016-Apr-28 10:33N 38°13' E 015°36'4 3.7
2016-Apr-28 09:33N 38°10' E 015°34'3 2.7
2016-Apr-28 08:33N 38°12' E 015°36'2 2.2
2016-Apr-28 07:34N 38°10' E 015°34'1 0.6
2016-Apr-28 06:33N 38°10' E 015°35'4 0.8
2016-Apr-28 01:27N 38°13' E 015°38'7 8.3
2016-Apr-28 00:34N 38°08' E 015°31'7 7.4
2016-Apr-27 23:34N 38°13' E 015°38'7 7.4
2016-Apr-27 22:34N 38°08' E 015°31'7 7.4
2016-Apr-27 21:34N 38°13' E 015°38'7 7.3
2016-Apr-27 20:33N 38°08' E 015°31'7 7.3
2016-Apr-27 19:33N 38°13' E 015°37'5 4.9
2016-Apr-27 18:33N 38°09' E 015°35'2 2.0
2016-Apr-27 17:34N 38°11' E 015°35'2 1.7
2016-Apr-27 16:34N 38°10' E 015°37'3 2.9
2016-Apr-27 15:34N 38°09' E 015°34'6 5.5
2016-Apr-27 14:33N 38°13' E 015°38'7 7.4
2016-Apr-27 13:33N 38°08' E 015°31'7 7.4
2016-Apr-27 12:34N 38°13' E 015°38'6 6.3
2016-Apr-27 11:33N 38°08' E 015°33'5 5.1
2016-Apr-27 10:33N 38°13' E 015°36'4 4.0
2016-Apr-27 09:33N 38°09' E 015°35'3 2.8
2016-Apr-27 08:34N 38°12' E 015°35'3 2.7
2016-Apr-27 07:33N 38°09' E 015°36'3 2.6
2016-Apr-27 06:34N 38°11' E 015°35'1 0.2
2016-Apr-27 01:33N 38°11' E 015°36'2 2.1
2016-Apr-27 00:33N 38°10' E 015°34'3 2.9
2016-Apr-26 23:33N 38°12' E 015°37'5 5.0
2016-Apr-26 22:33N 38°08' E 015°32'7 6.9
2016-Apr-26 21:33N 38°13' E 015°38'7 7.5
2016-Apr-26 20:33N 38°08' E 015°31'7 7.4
2016-Apr-26 19:33N 38°13' E 015°38'5 4.6
2016-Apr-26 18:33N 38°09' E 015°36'2 2.2
2016-Apr-26 17:33N 38°10' E 015°35'2 2.2
2016-Apr-26 16:33N 38°10' E 015°37'3 2.9
2016-Apr-26 15:33N 38°09' E 015°34'5 4.9
2016-Apr-26 14:33N 38°13' E 015°38'7 7.1
2016-Apr-26 13:32N 38°08' E 015°31'7 7.5
2016-Apr-26 12:33N 38°13' E 015°38'5 5.5
2016-Apr-26 11:33N 38°09' E 015°34'4 4.0
2016-Apr-26 10:34N 38°12' E 015°35'2 2.1
2016-Apr-26 09:34N 38°13' E 015°38'3 3.3
2016-Apr-26 08:32N 38°13' E 015°34'0 0.0
2016-Apr-26 07:29N 38°13' E 015°34'0 0.0
2016-Apr-26 06:32N 38°13' E 015°34'  
2016-Apr-24 01:33N 38°14' E 015°37'6 6.2
2016-Apr-24 00:33N 38°08' E 015°33'6 6.3
2016-Apr-23 23:34N 38°13' E 015°38'7 7.3
2016-Apr-23 22:33N 38°08' E 015°31'7 7.5
2016-Apr-23 21:34N 38°13' E 015°38'7 7.3
2016-Apr-23 20:33N 38°08' E 015°32'7 7.2
2016-Apr-23 19:34N 38°13' E 015°38'7 7.0
2016-Apr-23 18:34N 38°08' E 015°32'7 6.8
2016-Apr-23 17:33N 38°13' E 015°37'4 3.9
2016-Apr-23 16:34N 38°09' E 015°37'3 3.1
2016-Apr-23 15:34N 38°09' E 015°33'6 5.8
2016-Apr-23 14:33N 38°13' E 015°38'7 7.3
2016-Apr-23 13:33N 38°08' E 015°31'7 7.4
2016-Apr-23 12:33N 38°13' E 015°38'7 7.2
2016-Apr-23 11:33N 38°08' E 015°32'6 5.8
2016-Apr-23 10:33N 38°13' E 015°36'5 4.6
2016-Apr-23 09:33N 38°08' E 015°34'4 3.6
2016-Apr-23 08:33N 38°12' E 015°35'3 3.0
2016-Apr-23 07:33N 38°09' E 015°35'3 3.1
2016-Apr-23 06:33N 38°12' E 015°35'3 0.5
2016-Apr-23 01:22N 38°13' E 015°38'7 8.2
2016-Apr-23 00:34N 38°08' E 015°32'7 6.7
2016-Apr-22 23:33N 38°13' E 015°38'7 7.4
2016-Apr-22 22:33N 38°08' E 015°31'7 7.5
2016-Apr-22 21:34N 38°13' E 015°38'7 7.4
2016-Apr-22 20:33N 38°08' E 015°31'7 7.5
2016-Apr-22 19:33N 38°13' E 015°38'7 6.6
2016-Apr-22 18:33N 38°08' E 015°33'4 4.2
2016-Apr-22 17:33N 38°12' E 015°35'3 3.0
2016-Apr-22 16:33N 38°09' E 015°36'2 2.0
2016-Apr-22 15:34N 38°11' E 015°35'2 1.7
2016-Apr-22 14:34N 38°11' E 015°37'3 3.4
2016-Apr-22 13:34N 38°09' E 015°33'6 5.7
2016-Apr-22 12:34N 38°13' E 015°38'6 6.4
2016-Apr-22 11:33N 38°08' E 015°33'6 6.2
2016-Apr-22 10:33N 38°13' E 015°37'6 5.8
2016-Apr-22 09:33N 38°08' E 015°33'5 4.9
2016-Apr-22 08:33N 38°13' E 015°36'2 1.6
2016-Apr-22 07:31N 38°13' E 015°38'0 0.0
2016-Apr-22 06:31N 38°13' E 015°38'0 0.0
2016-Apr-22 01:32N 38°13' E 015°38'7 7.6
2016-Apr-22 00:33N 38°08' E 015°31'7 7.4
2016-Apr-21 23:33N 38°13' E 015°38'7 7.4
2016-Apr-21 22:33N 38°08' E 015°31'7 7.4
2016-Apr-21 21:33N 38°13' E 015°38'7 7.4
2016-Apr-21 20:33N 38°08' E 015°31'7 7.4
2016-Apr-21 19:33N 38°13' E 015°38'5 5.5
2016-Apr-21 18:33N 38°09' E 015°34'5 4.5
2016-Apr-21 17:33N 38°13' E 015°36'4 4.3
2016-Apr-21 16:33N 38°09' E 015°35'1 1.2
2016-Apr-21 15:33N 38°10' E 015°34'5 4.7
2016-Apr-21 14:33N 38°13' E 015°38'7 7.5
2016-Apr-21 13:33N 38°08' E 015°31'7 7.4
2016-Apr-21 12:33N 38°13' E 015°38'6 5.6
2016-Apr-21 11:33N 38°09' E 015°34'3 3.2
2016-Apr-21 10:33N 38°12' E 015°36'2 2.3
2016-Apr-21 09:33N 38°09' E 015°36'2 1.7
2016-Apr-21 08:33N 38°11' E 015°35'2 1.8
2016-Apr-21 07:33N 38°09' E 015°36'2 1.7
2016-Apr-21 06:33N 38°10' E 015°34'4 4.2
2016-Apr-21 05:33N 38°13' E 015°38'0 0.0
2016-Apr-21 01:33N 38°13' E 015°38'7 7.4
2016-Apr-21 00:33N 38°08' E 015°31'7 7.1
2016-Apr-20 23:33N 38°13' E 015°38'7 6.7
2016-Apr-20 22:33N 38°08' E 015°32'6 6.3
2016-Apr-20 21:33N 38°13' E 015°37'7 6.7
2016-Apr-20 20:33N 38°08' E 015°31'7 7.4
2016-Apr-20 19:33N 38°13' E 015°38'5 5.2
2016-Apr-20 18:33N 38°09' E 015°35'2 2.4
2016-Apr-20 17:33N 38°11' E 015°35'2 1.7
2016-Apr-20 16:33N 38°10' E 015°37'2 2.0
2016-Apr-20 15:33N 38°10' E 015°34'4 3.8
2016-Apr-20 14:33N 38°13' E 015°37'6 6.2
2016-Apr-20 13:33N 38°08' E 015°32'7 7.1
2016-Apr-20 12:33N 38°13' E 015°38'4 4.4
2016-Apr-20 11:33N 38°09' E 015°36'2 1.5
2016-Apr-20 10:33N 38°10' E 015°35'2 2.0
2016-Apr-20 09:34N 38°11' E 015°37'4 3.6
2016-Apr-20 08:33N 38°09' E 015°33'4 4.0
2016-Apr-20 07:33N 38°12' E 015°36'2 2.0
2016-Apr-20 06:33N 38°13' E 015°34'0 0.0
2016-Apr-20 02:28N 38°13' E 015°34'3 3.7
2016-Apr-20 01:34N 38°10' E 015°37'3 3.2
2016-Apr-20 00:34N 38°09' E 015°33'4 4.3
2016-Apr-19 23:33N 38°12' E 015°37'6 5.9
2016-Apr-19 22:33N 38°08' E 015°31'7 6.9
2016-Apr-19 21:33N 38°13' E 015°38'7 6.9
2016-Apr-19 20:33N 38°08' E 015°31'7 7.3
2016-Apr-19 19:33N 38°13' E 015°38'5 5.3
2016-Apr-19 18:33N 38°09' E 015°35'3 2.7
2016-Apr-19 17:33N 38°11' E 015°35'2 1.6
2016-Apr-19 16:33N 38°13' E 015°34'0 0.2
2016-Apr-19 15:33N 38°13' E 015°34'0 0.0
2016-Apr-19 14:33N 38°13' E 015°34'0 0.0
2016-Apr-19 13:33N 38°13' E 015°34'0 0.0
2016-Apr-19 12:33N 38°13' E 015°34'0 0.0
2016-Apr-19 11:33N 38°13' E 015°34'0 0.0
2016-Apr-19 10:33N 38°13' E 015°34'0 0.0
2016-Apr-19 09:33N 38°13' E 015°34'0 0.0
2016-Apr-19 08:33N 38°13' E 015°34'0 0.0
2016-Apr-19 07:34N 38°13' E 015°34'0 0.0
2016-Apr-19 06:33N 38°13' E 015°34'0 0.0
2016-Apr-19 02:08N 38°13' E 015°34'3 5.8
2016-Apr-19 01:34N 38°13' E 015°38'7 7.4
2016-Apr-19 00:33N 38°08' E 015°31'7 7.4
2016-Apr-18 23:34N 38°13' E 015°38'  

Dump ship's entire track history